sensor_id;sensor_type;location;lat;lon;timestamp;pressure;altitude;pressure_sealevel;temperature;humidity
68891;BME280;55932;48.702;8.884;2023-04-24T00:00:20;95140;;;10.2;67
68891;BME280;55932;48.702;8.884;2023-04-24T00:02:50;95140;;;10.2;67
68891;BME280;55932;48.702;8.884;2023-04-24T00:08:02;95160;;;10.3;67
68891;BME280;55932;48.702;8.884;2023-04-24T00:10:32;95170;;;10.3;67
68891;BME280;55932;48.702;8.884;2023-04-24T00:13:02;95170;;;10.3;67
68891;BME280;55932;48.702;8.884;2023-04-24T00:15:32;95160;;;10.2;67
68891;BME280;55932;48.702;8.884;2023-04-24T00:30:55;95160;;;10.3;67
68891;BME280;55932;48.702;8.884;2023-04-24T00:33:35;95150;;;10.3;67
68891;BME280;55932;48.702;8.884;2023-04-24T00:35:47;95150;;;10.3;67
68891;BME280;55932;48.702;8.884;2023-04-24T00:38:18;95150;;;10.2;67
68891;BME280;55932;48.702;8.884;2023-04-24T00:40:48;95150;;;10.2;67.5
68891;BME280;55932;48.702;8.884;2023-04-24T00:48:07;95140;;;10.2;67.5
68891;BME280;55932;48.702;8.884;2023-04-24T00:50:47;95140;;;10.1;67.5
68891;BME280;55932;48.702;8.884;2023-04-24T01:00:50;95140;;;10.1;67.5
68891;BME280;55932;48.702;8.884;2023-04-24T01:08:31;95140;;;10.2;67
68891;BME280;55932;48.702;8.884;2023-04-24T01:11:02;95140;;;10.2;67
68891;BME280;55932;48.702;8.884;2023-04-24T01:13:41;95130;;;9.8;67.5
68891;BME280;55932;48.702;8.884;2023-04-24T01:15:42;95130;;;9.6;68
68891;BME280;55932;48.702;8.884;2023-04-24T01:18:13;95120;;;9.4;68
68891;BME280;55932;48.702;8.884;2023-04-24T01:20:43;95120;;;9.3;68
68891;BME280;55932;48.702;8.884;2023-04-24T01:23:13;95120;;;9.3;68
68891;BME280;55932;48.702;8.884;2023-04-24T01:25:43;95130;;;9.3;68
68891;BME280;55932;48.702;8.884;2023-04-24T01:30:33;95110;;;9.4;68
68891;BME280;55932;48.702;8.884;2023-04-24T01:33:04;95110;;;9.3;68
68891;BME280;55932;48.702;8.884;2023-04-24T01:35:35;95110;;;9.2;68
68891;BME280;55932;48.702;8.884;2023-04-24T01:38:05;95110;;;9.1;68
68891;BME280;55932;48.702;8.884;2023-04-24T01:40:35;95110;;;9.1;68
68891;BME280;55932;48.702;8.884;2023-04-24T01:43:06;95110;;;9.2;68
68891;BME280;55932;48.702;8.884;2023-04-24T01:45:37;95110;;;9.2;68
68891;BME280;55932;48.702;8.884;2023-04-24T01:48:07;95100;;;9.3;68
68891;BME280;55932;48.702;8.884;2023-04-24T01:50:49;95100;;;9.4;68
68891;BME280;55932;48.702;8.884;2023-04-24T01:53:19;95100;;;9.4;67.5
68891;BME280;55932;48.702;8.884;2023-04-24T01:55:49;95100;;;9.3;67.5
68891;BME280;55932;48.702;8.884;2023-04-24T01:58:19;95100;;;9.3;67.5
68891;BME280;55932;48.702;8.884;2023-04-24T02:00:59;95100;;;9.3;67.5
68891;BME280;55932;48.702;8.884;2023-04-24T02:03:29;95100;;;9.1;68
68891;BME280;55932;48.702;8.884;2023-04-24T02:05:49;95100;;;9;68
68891;BME280;55932;48.702;8.884;2023-04-24T02:08:19;95100;;;8.9;68.5
68891;BME280;55932;48.702;8.884;2023-04-24T02:13:08;95100;;;9.1;68
68891;BME280;55932;48.702;8.884;2023-04-24T02:15:41;95100;;;9.2;68
68891;BME280;55932;48.702;8.884;2023-04-24T02:18:09;95110;;;9.3;68
68891;BME280;55932;48.702;8.884;2023-04-24T02:25:41;95120;;;9.5;67.5
68891;BME280;55932;48.702;8.884;2023-04-24T02:30:42;95120;;;9.4;67.5
68891;BME280;55932;48.702;8.884;2023-04-24T02:33:13;95120;;;9.4;67.5
68891;BME280;55932;48.702;8.884;2023-04-24T02:43:26;95110;;;9.3;67.5
68891;BME280;55932;48.702;8.884;2023-04-24T02:45:56;95110;;;9.3;67.5
68891;BME280;55932;48.702;8.884;2023-04-24T02:48:26;95110;;;9.3;67.5
68891;BME280;55932;48.702;8.884;2023-04-24T02:53:16;95100;;;9.1;68
68891;BME280;55932;48.702;8.884;2023-04-24T02:55:46;95100;;;8.9;68
68891;BME280;55932;48.702;8.884;2023-04-24T02:58:17;95100;;;8.8;68
68891;BME280;55932;48.702;8.884;2023-04-24T03:00:47;95110;;;8.7;68.5
68891;BME280;55932;48.702;8.884;2023-04-24T03:03:18;95100;;;8.7;68.5
68891;BME280;55932;48.702;8.884;2023-04-24T03:05:48;95100;;;8.5;68.5
68891;BME280;55932;48.702;8.884;2023-04-24T03:13:19;95100;;;8.5;68.5
68891;BME280;55932;48.702;8.884;2023-04-24T03:15:50;95100;;;8.6;68.5
68891;BME280;55932;48.702;8.884;2023-04-24T03:18:21;95100;;;8.7;68.5
68891;BME280;55932;48.702;8.884;2023-04-24T03:20:51;95090;;;8.8;68
68891;BME280;55932;48.702;8.884;2023-04-24T03:23:21;95090;;;8.8;68
68891;BME280;55932;48.702;8.884;2023-04-24T03:25:52;95090;;;8.9;68
68891;BME280;55932;48.702;8.884;2023-04-24T03:28:22;95080;;;8.9;68
68891;BME280;55932;48.702;8.884;2023-04-24T03:30:53;95080;;;8.7;68
68891;BME280;55932;48.702;8.884;2023-04-24T03:38:24;95080;;;8.3;69
68891;BME280;55932;48.702;8.884;2023-04-24T03:40:55;95080;;;8.2;69
68891;BME280;55932;48.702;8.884;2023-04-24T03:46:07;95080;;;8.2;69
68891;BME280;55932;48.702;8.884;2023-04-24T03:51:08;95080;;;8.4;68.5
68891;BME280;55932;48.702;8.884;2023-04-24T03:53:38;95080;;;8.6;68.5
68891;BME280;55932;48.702;8.884;2023-04-24T03:56:08;95080;;;8.7;68
68891;BME280;55932;48.702;8.884;2023-04-24T04:03:27;95100;;;9;68
68891;BME280;55932;48.702;8.884;2023-04-24T04:05:58;95110;;;9;67.5
68891;BME280;55932;48.702;8.884;2023-04-24T04:08:28;95110;;;9.1;67.5
68891;BME280;55932;48.702;8.884;2023-04-24T04:10:59;95140;;;9.1;67.5
68891;BME280;55932;48.702;8.884;2023-04-24T04:13:29;95160;;;9;67.5
68891;BME280;55932;48.702;8.884;2023-04-24T04:18:30;95170;;;8.3;68
68891;BME280;55932;48.702;8.884;2023-04-24T04:21:01;95170;;;8;68
68891;BME280;55932;48.702;8.884;2023-04-24T04:31:03;95170;;;7.5;68.5
68891;BME280;55932;48.702;8.884;2023-04-24T04:33:33;95170;;;7.5;68.5
68891;BME280;55932;48.702;8.884;2023-04-24T04:36:04;95170;;;7.5;68.5
68891;BME280;55932;48.702;8.884;2023-04-24T04:41:27;95170;;;7.5;68.5
68891;BME280;55932;48.702;8.884;2023-04-24T04:43:58;95170;;;7.5;68.5
68891;BME280;55932;48.702;8.884;2023-04-24T04:46:30;95170;;;7.5;68.5
68891;BME280;55932;48.702;8.884;2023-04-24T04:49:00;95180;;;7.4;68.5
68891;BME280;55932;48.702;8.884;2023-04-24T04:51:18;95190;;;7.5;68.5
68891;BME280;55932;48.702;8.884;2023-04-24T04:53:48;95190;;;7.5;68.5
68891;BME280;55932;48.702;8.884;2023-04-24T04:56:18;95190;;;7.6;68
68891;BME280;55932;48.702;8.884;2023-04-24T05:01:08;95190;;;7.5;68
68891;BME280;55932;48.702;8.884;2023-04-24T05:06:08;95200;;;7.5;68
68891;BME280;55932;48.702;8.884;2023-04-24T05:08:39;95200;;;7.4;68
68891;BME280;55932;48.702;8.884;2023-04-24T05:11:09;95220;;;7.4;68
68891;BME280;55932;48.702;8.884;2023-04-24T05:13:40;95220;;;7.4;68
68891;BME280;55932;48.702;8.884;2023-04-24T05:21:11;95230;;;7.5;68
68891;BME280;55932;48.702;8.884;2023-04-24T05:23:42;95240;;;7.5;68
68891;BME280;55932;48.702;8.884;2023-04-24T05:26:13;95240;;;7.4;68
68891;BME280;55932;48.702;8.884;2023-04-24T05:31:25;95250;;;7.6;68
68891;BME280;55932;48.702;8.884;2023-04-24T05:33:55;95240;;;7.7;67.5
68891;BME280;55932;48.702;8.884;2023-04-24T05:36:25;95240;;;7.8;67.5
68891;BME280;55932;48.702;8.884;2023-04-24T05:43:45;95260;;;7.6;67.5
68891;BME280;55932;48.702;8.884;2023-04-24T05:46:15;95260;;;7.5;67.5
68891;BME280;55932;48.702;8.884;2023-04-24T05:48:46;95260;;;7.5;67.5
68891;BME280;55932;48.702;8.884;2023-04-24T05:51:16;95260;;;7.4;68
68891;BME280;55932;48.702;8.884;2023-04-24T05:53:59;95260;;;7.4;68
68891;BME280;55932;48.702;8.884;2023-04-24T05:56:34;95270;;;7.6;68
68891;BME280;55932;48.702;8.884;2023-04-24T05:58:59;95270;;;8;67.5
68891;BME280;55932;48.702;8.884;2023-04-24T06:01:28;95260;;;8.3;67
68891;BME280;55932;48.702;8.884;2023-04-24T06:06:18;95270;;;9.2;66
68891;BME280;55932;48.702;8.884;2023-04-24T06:08:48;95270;;;9.2;66
68891;BME280;55932;48.702;8.884;2023-04-24T06:11:19;95260;;;10.1;64.5
68891;BME280;55932;48.702;8.884;2023-04-24T06:13:49;95270;;;10.7;64
68891;BME280;55932;48.702;8.884;2023-04-24T06:29:15;95260;;;11.7;64
68891;BME280;55932;48.702;8.884;2023-04-24T06:31:45;95270;;;11.4;64.5
68891;BME280;55932;48.702;8.884;2023-04-24T06:34:16;95270;;;11.5;65
68891;BME280;55932;48.702;8.884;2023-04-24T06:36:47;95260;;;12.2;64.5
68891;BME280;55932;48.702;8.884;2023-04-24T06:46:38;95280;;;11.9;65
68891;BME280;55932;48.702;8.884;2023-04-24T06:49:08;95270;;;11.9;65.5
68891;BME280;55932;48.702;8.884;2023-04-24T06:51:38;95270;;;11.9;65
68891;BME280;55932;48.702;8.884;2023-04-24T06:54:08;95270;;;12;65
68891;BME280;55932;48.702;8.884;2023-04-24T07:01:27;95290;;;10.7;66.5
68891;BME280;55932;48.702;8.884;2023-04-24T07:04:20;95290;;;10.5;67
68891;BME280;55932;48.702;8.884;2023-04-24T07:11:52;95300;;;11.2;66
68891;BME280;55932;48.702;8.884;2023-04-24T07:14:23;95290;;;14.6;59.5
68891;BME280;55932;48.702;8.884;2023-04-24T07:16:53;95290;;;16.3;57
68891;BME280;55932;48.702;8.884;2023-04-24T07:19:24;95290;;;16.6;57.5
68891;BME280;55932;48.702;8.884;2023-04-24T07:21:42;95290;;;16.6;58
68891;BME280;55932;48.702;8.884;2023-04-24T07:26:52;95290;;;14.6;62.5
68891;BME280;55932;48.702;8.884;2023-04-24T07:29:26;95300;;;14.1;63.5
68891;BME280;55932;48.702;8.884;2023-04-24T07:36:55;95310;;;13.8;64
68891;BME280;55932;48.702;8.884;2023-04-24T07:41:56;95330;;;12.2;67.5
68891;BME280;55932;48.702;8.884;2023-04-24T07:44:27;95330;;;11.7;67.5
68891;BME280;55932;48.702;8.884;2023-04-24T07:46:57;95340;;;11.6;67.5
68891;BME280;55932;48.702;8.884;2023-04-24T07:49:16;95340;;;12.1;66.5
68891;BME280;55932;48.702;8.884;2023-04-24T07:51:55;95330;;;12.1;67
68891;BME280;55932;48.702;8.884;2023-04-24T07:54:26;95330;;;13.7;63.5
68891;BME280;55932;48.702;8.884;2023-04-24T07:59:06;95340;;;12.5;66
68891;BME280;55932;48.702;8.884;2023-04-24T08:01:36;95340;;;12.4;65.5
68891;BME280;55932;48.702;8.884;2023-04-24T08:09:08;95340;;;15.8;60
68891;BME280;55932;48.702;8.884;2023-04-24T08:11:39;95330;;;14.6;62.5
68891;BME280;55932;48.702;8.884;2023-04-24T08:16:40;95340;;;16.4;59
68891;BME280;55932;48.702;8.884;2023-04-24T08:19:10;95350;;;17.7;57.5
68891;BME280;55932;48.702;8.884;2023-04-24T08:21:41;95350;;;18.2;57
68891;BME280;55932;48.702;8.884;2023-04-24T08:24:31;95350;;;18;57.5
68891;BME280;55932;48.702;8.884;2023-04-24T08:29:23;95350;;;20;55
68891;BME280;55932;48.702;8.884;2023-04-24T08:31:53;95360;;;18.6;57.5
68891;BME280;55932;48.702;8.884;2023-04-24T08:34:23;95370;;;15.1;64
68891;BME280;55932;48.702;8.884;2023-04-24T08:36:53;95370;;;13.8;66
68891;BME280;55932;48.702;8.884;2023-04-24T08:39:24;95380;;;13.9;66.5
68891;BME280;55932;48.702;8.884;2023-04-24T08:42:04;95380;;;15.3;63
68891;BME280;55932;48.702;8.884;2023-04-24T08:44:35;95370;;;16.9;60
68891;BME280;55932;48.702;8.884;2023-04-24T08:47:15;95370;;;18.3;57.5
68891;BME280;55932;48.702;8.884;2023-04-24T08:51:55;95380;;;17.9;58
68891;BME280;55932;48.702;8.884;2023-04-24T08:54:25;95380;;;18.6;57
68891;BME280;55932;48.702;8.884;2023-04-24T08:56:57;95380;;;19.4;56
68891;BME280;55932;48.702;8.884;2023-04-24T09:01:56;95390;;;17.7;59.5
68891;BME280;55932;48.702;8.884;2023-04-24T09:04:25;95400;;;18.2;58.5
68891;BME280;55932;48.702;8.884;2023-04-24T09:06:57;95390;;;19.3;56
68891;BME280;55932;48.702;8.884;2023-04-24T09:11:57;95400;;;19.3;56
68891;BME280;55932;48.702;8.884;2023-04-24T09:14:26;95400;;;19;56.5
68891;BME280;55932;48.702;8.884;2023-04-24T09:16:56;95400;;;19;56.5
68891;BME280;55932;48.702;8.884;2023-04-24T09:19:26;95400;;;18.7;57
68891;BME280;55932;48.702;8.884;2023-04-24T09:21:56;95400;;;19;57
68891;BME280;55932;48.702;8.884;2023-04-24T09:24:26;95410;;;19.1;57
68891;BME280;55932;48.702;8.884;2023-04-24T09:26:57;95420;;;18.6;58.5
68891;BME280;55932;48.702;8.884;2023-04-24T09:31:58;95420;;;17.6;61
68891;BME280;55932;48.702;8.884;2023-04-24T09:34:37;95420;;;18;60
68891;BME280;55932;48.702;8.884;2023-04-24T09:37:07;95410;;;18.6;59
68891;BME280;55932;48.702;8.884;2023-04-24T09:41:58;95440;;;18.7;59.5
68891;BME280;55932;48.702;8.884;2023-04-24T09:44:28;95450;;;16.4;64
68891;BME280;55932;48.702;8.884;2023-04-24T09:46:58;95460;;;16.5;63.5
68891;BME280;55932;48.702;8.884;2023-04-24T09:49:29;95450;;;18.5;59.5
68891;BME280;55932;48.702;8.884;2023-04-24T09:52:02;95460;;;18.2;60
68891;BME280;55932;48.702;8.884;2023-04-24T09:54:28;95460;;;18.6;59.5
68891;BME280;55932;48.702;8.884;2023-04-24T09:57:08;95460;;;18.6;59.5
68891;BME280;55932;48.702;8.884;2023-04-24T09:59:29;95450;;;19.1;59.5
68891;BME280;55932;48.702;8.884;2023-04-24T10:01:47;95450;;;19.6;59
68891;BME280;55932;48.702;8.884;2023-04-24T10:06:57;95450;;;19.2;59.5
68891;BME280;55932;48.702;8.884;2023-04-24T10:14:21;95460;;;17.8;62.5
68891;BME280;55932;48.702;8.884;2023-04-24T10:16:52;95460;;;16.7;64.5
68891;BME280;55932;48.702;8.884;2023-04-24T10:21:51;95480;;;14.7;66.5
68891;BME280;55932;48.702;8.884;2023-04-24T10:27:09;95470;;;17.8;61.5
68891;BME280;55932;48.702;8.884;2023-04-24T10:29:33;95470;;;17.5;62.5
68891;BME280;55932;48.702;8.884;2023-04-24T10:32:06;95490;;;16.2;64.5
68891;BME280;55932;48.702;8.884;2023-04-24T10:39:34;95480;;;17.7;62.5
68891;BME280;55932;48.702;8.884;2023-04-24T10:42:16;95490;;;16;64.5
68891;BME280;55932;48.702;8.884;2023-04-24T10:44:47;95490;;;15.2;65.5
68891;BME280;55932;48.702;8.884;2023-04-24T10:47:17;95500;;;14.7;66
68891;BME280;55932;48.702;8.884;2023-04-24T10:49:58;95500;;;14.2;66.5
68891;BME280;55932;48.702;8.884;2023-04-24T10:54:42;95500;;;13.4;67
68891;BME280;55932;48.702;8.884;2023-04-24T11:02:07;95510;;;13.9;67
68891;BME280;55932;48.702;8.884;2023-04-24T11:04:47;95500;;;14.1;66.5
68891;BME280;55932;48.702;8.884;2023-04-24T11:07:17;95510;;;14.3;66
68891;BME280;55932;48.702;8.884;2023-04-24T11:09:38;95510;;;14.8;65.5
68891;BME280;55932;48.702;8.884;2023-04-24T11:16:58;95520;;;14.5;65
68891;BME280;55932;48.702;8.884;2023-04-24T11:19:31;95540;;;13.2;66
68891;BME280;55932;48.702;8.884;2023-04-24T11:22:00;95540;;;11.7;68
68891;BME280;55932;48.702;8.884;2023-04-24T11:24:30;95540;;;11.4;68.5
68891;BME280;55932;48.702;8.884;2023-04-24T11:34:31;95550;;;13;67
68891;BME280;55932;48.702;8.884;2023-04-24T11:37:01;95540;;;13.7;67
68891;BME280;55932;48.702;8.884;2023-04-24T11:39:36;95550;;;14.4;67
68891;BME280;55932;48.702;8.884;2023-04-24T11:42:04;95540;;;14.3;66.5
68891;BME280;55932;48.702;8.884;2023-04-24T11:44:33;95530;;;13.7;66.5
68891;BME280;55932;48.702;8.884;2023-04-24T11:47:05;95540;;;13;67
68891;BME280;55932;48.702;8.884;2023-04-24T11:49:37;95540;;;12.1;68
68891;BME280;55932;48.702;8.884;2023-04-24T11:54:47;95550;;;11.5;68.5
68891;BME280;55932;48.702;8.884;2023-04-24T12:02:19;95550;;;12.3;67
68891;BME280;55932;48.702;8.884;2023-04-24T12:07:18;95560;;;12.6;66.5
68891;BME280;55932;48.702;8.884;2023-04-24T12:09:49;95560;;;13;66
68891;BME280;55932;48.702;8.884;2023-04-24T12:12:18;95550;;;13.3;66.5
68891;BME280;55932;48.702;8.884;2023-04-24T12:14:48;95560;;;13.2;66
68891;BME280;55932;48.702;8.884;2023-04-24T12:25:02;95570;;;12.5;67
68891;BME280;55932;48.702;8.884;2023-04-24T12:30:20;95560;;;11.8;67
68891;BME280;55932;48.702;8.884;2023-04-24T12:32:32;95560;;;11.6;67.5
68891;BME280;55932;48.702;8.884;2023-04-24T12:37:33;95570;;;11.9;67
68891;BME280;55932;48.702;8.884;2023-04-24T12:40:07;95560;;;11.7;67
68891;BME280;55932;48.702;8.884;2023-04-24T12:42:35;95560;;;11.5;67.5
68891;BME280;55932;48.702;8.884;2023-04-24T12:45:05;95560;;;11.3;67.5
68891;BME280;55932;48.702;8.884;2023-04-24T12:47:34;95570;;;11.1;68
68891;BME280;55932;48.702;8.884;2023-04-24T12:50:03;95560;;;11.3;68
68891;BME280;55932;48.702;8.884;2023-04-24T12:52:25;95560;;;11.9;67
68891;BME280;55932;48.702;8.884;2023-04-24T12:59:44;95560;;;12.7;66
68891;BME280;55932;48.702;8.884;2023-04-24T13:02:14;95570;;;12.8;66
68891;BME280;55932;48.702;8.884;2023-04-24T13:04:45;95570;;;12.9;66
68891;BME280;55932;48.702;8.884;2023-04-24T13:07:15;95570;;;13;66
68891;BME280;55932;48.702;8.884;2023-04-24T13:14:47;95580;;;12.2;67
68891;BME280;55932;48.702;8.884;2023-04-24T13:17:17;95580;;;12.2;67
68891;BME280;55932;48.702;8.884;2023-04-24T13:22:29;95590;;;11.6;67.5
68891;BME280;55932;48.702;8.884;2023-04-24T13:24:59;95600;;;11.1;68
68891;BME280;55932;48.702;8.884;2023-04-24T13:27:29;95600;;;10.7;68
68891;BME280;55932;48.702;8.884;2023-04-24T13:29:59;95600;;;10.5;68.5
68891;BME280;55932;48.702;8.884;2023-04-24T13:32:30;95600;;;10.7;68
68891;BME280;55932;48.702;8.884;2023-04-24T13:37:20;95590;;;11.8;66.5
68891;BME280;55932;48.702;8.884;2023-04-24T13:39:50;95590;;;11.8;67
68891;BME280;55932;48.702;8.884;2023-04-24T13:42:20;95580;;;12.2;66.5
68891;BME280;55932;48.702;8.884;2023-04-24T13:44:51;95580;;;12;66.5
68891;BME280;55932;48.702;8.884;2023-04-24T13:47:22;95580;;;11.9;66.5
68891;BME280;55932;48.702;8.884;2023-04-24T13:49:53;95590;;;11.5;67
68891;BME280;55932;48.702;8.884;2023-04-24T13:52:23;95590;;;11.1;67.5
68891;BME280;55932;48.702;8.884;2023-04-24T13:54:53;95600;;;10.5;68
68891;BME280;55932;48.702;8.884;2023-04-24T13:57:24;95600;;;10;68.5
68891;BME280;55932;48.702;8.884;2023-04-24T14:07:46;95600;;;8.7;69
68891;BME280;55932;48.702;8.884;2023-04-24T14:10:07;95590;;;9.6;68.5
68891;BME280;55932;48.702;8.884;2023-04-24T14:12:37;95600;;;10.2;69
68891;BME280;55932;48.702;8.884;2023-04-24T14:17:26;95590;;;11;69
68891;BME280;55932;48.702;8.884;2023-04-24T14:19:56;95590;;;11;68
68891;BME280;55932;48.702;8.884;2023-04-24T14:22:27;95580;;;11.3;67
68891;BME280;55932;48.702;8.884;2023-04-24T14:29:59;95580;;;11.9;66
68891;BME280;55932;48.702;8.884;2023-04-24T14:32:30;95580;;;12.1;65.5
68891;BME280;55932;48.702;8.884;2023-04-24T14:35:00;95580;;;12.1;65.5
68891;BME280;55932;48.702;8.884;2023-04-24T14:37:31;95580;;;12;65.5
68891;BME280;55932;48.702;8.884;2023-04-24T14:45:13;95570;;;11.5;66
68891;BME280;55932;48.702;8.884;2023-04-24T14:47:43;95570;;;11.1;66.5
68891;BME280;55932;48.702;8.884;2023-04-24T14:50:14;95570;;;10.8;66.5
68891;BME280;55932;48.702;8.884;2023-04-24T14:52:45;95570;;;10.5;67
68891;BME280;55932;48.702;8.884;2023-04-24T14:55:16;95570;;;10.4;67
68891;BME280;55932;48.702;8.884;2023-04-24T14:57:55;95580;;;10.3;67.5
68891;BME280;55932;48.702;8.884;2023-04-24T15:00:25;95570;;;10.5;67.5
68891;BME280;55932;48.702;8.884;2023-04-24T15:02:46;95570;;;10.7;67
68891;BME280;55932;48.702;8.884;2023-04-24T15:07:58;95570;;;10.3;67.5
68891;BME280;55932;48.702;8.884;2023-04-24T15:10:29;95570;;;10.2;67.5
68891;BME280;55932;48.702;8.884;2023-04-24T15:13:00;95570;;;10.2;67.5
68891;BME280;55932;48.702;8.884;2023-04-24T15:20:38;95580;;;10.3;67.5
68891;BME280;55932;48.702;8.884;2023-04-24T15:23:08;95580;;;10.7;67
68891;BME280;55932;48.702;8.884;2023-04-24T15:25:06;95580;;;10.9;67
68891;BME280;55932;48.702;8.884;2023-04-24T15:27:43;95580;;;10.9;67
68891;BME280;55932;48.702;8.884;2023-04-24T15:32:38;95570;;;11.5;66.5
68891;BME280;55932;48.702;8.884;2023-04-24T15:35:17;95580;;;11.5;66.5
68891;BME280;55932;48.702;8.884;2023-04-24T15:37:39;95580;;;11.6;66.5
68891;BME280;55932;48.702;8.884;2023-04-24T15:40:10;95570;;;11.9;66.5
68891;BME280;55932;48.702;8.884;2023-04-24T15:50:32;95550;;;15.1;64.5
68891;BME280;55932;48.702;8.884;2023-04-24T15:52:56;95550;;;13.6;64.5
68891;BME280;55932;48.702;8.884;2023-04-24T15:55:19;95550;;;12.7;66
68891;BME280;55932;48.702;8.884;2023-04-24T15:57:51;95560;;;12.6;66.5
68891;BME280;55932;48.702;8.884;2023-04-24T16:00:22;95560;;;12.5;66.5
68891;BME280;55932;48.702;8.884;2023-04-24T16:05:16;95560;;;11.8;67
68891;BME280;55932;48.702;8.884;2023-04-24T16:07:47;95550;;;11.7;67
68891;BME280;55932;48.702;8.884;2023-04-24T16:10:17;95560;;;11.8;67
68891;BME280;55932;48.702;8.884;2023-04-24T16:20:21;95570;;;11.7;67
68891;BME280;55932;48.702;8.884;2023-04-24T16:22:51;95560;;;11.5;67
68891;BME280;55932;48.702;8.884;2023-04-24T16:33:06;95560;;;11;67.5
68891;BME280;55932;48.702;8.884;2023-04-24T16:35:36;95560;;;11;67.5
68891;BME280;55932;48.702;8.884;2023-04-24T16:38:13;95560;;;12;68
68891;BME280;55932;48.702;8.884;2023-04-24T16:40:37;95550;;;13.2;67.5
68891;BME280;55932;48.702;8.884;2023-04-24T16:43:07;95550;;;14;66
68891;BME280;55932;48.702;8.884;2023-04-24T16:45:37;95540;;;14.3;65.5
68891;BME280;55932;48.702;8.884;2023-04-24T16:48:14;95540;;;14.1;66.5
68891;BME280;55932;48.702;8.884;2023-04-24T16:53:02;95540;;;13.6;66.5
68891;BME280;55932;48.702;8.884;2023-04-24T16:55:33;95540;;;13.3;67
68891;BME280;55932;48.702;8.884;2023-04-24T17:00:28;95550;;;12.7;66
68891;BME280;55932;48.702;8.884;2023-04-24T17:02:58;95540;;;12.6;66.5
68891;BME280;55932;48.702;8.884;2023-04-24T17:05:50;95540;;;12.5;66.5
68891;BME280;55932;48.702;8.884;2023-04-24T17:10:31;95540;;;11.7;67
68891;BME280;55932;48.702;8.884;2023-04-24T17:18:08;95550;;;10.9;67.5
68891;BME280;55932;48.702;8.884;2023-04-24T17:20:34;95550;;;10.9;68
68891;BME280;55932;48.702;8.884;2023-04-24T17:23:05;95550;;;10.9;68
68891;BME280;55932;48.702;8.884;2023-04-24T17:25:49;95550;;;10.9;67.5
68891;BME280;55932;48.702;8.884;2023-04-24T17:28:23;95560;;;10.8;67.5
68891;BME280;55932;48.702;8.884;2023-04-24T17:30:49;95560;;;10.7;67.5
68891;BME280;55932;48.702;8.884;2023-04-24T17:35:44;95560;;;10.2;68.5
68891;BME280;55932;48.702;8.884;2023-04-24T17:38:15;95560;;;9.9;68.5
68891;BME280;55932;48.702;8.884;2023-04-24T17:40:46;95550;;;9.7;69
68891;BME280;55932;48.702;8.884;2023-04-24T17:45:54;95560;;;9.4;69
68891;BME280;55932;48.702;8.884;2023-04-24T17:48:24;95560;;;9.3;69
68891;BME280;55932;48.702;8.884;2023-04-24T17:50:55;95560;;;9.3;69
68891;BME280;55932;48.702;8.884;2023-04-24T17:55:48;95570;;;9.2;69
68891;BME280;55932;48.702;8.884;2023-04-24T17:58:19;95560;;;9.1;69
68891;BME280;55932;48.702;8.884;2023-04-24T18:00:50;95570;;;9;69
68891;BME280;55932;48.702;8.884;2023-04-24T18:05:45;95570;;;8.7;69.5
68891;BME280;55932;48.702;8.884;2023-04-24T18:08:16;95580;;;8.6;69.5
68891;BME280;55932;48.702;8.884;2023-04-24T18:15:49;95570;;;8.6;69.5
68891;BME280;55932;48.702;8.884;2023-04-24T18:18:19;95570;;;8.7;69.5
68891;BME280;55932;48.702;8.884;2023-04-24T18:20:50;95580;;;8.8;69
68891;BME280;55932;48.702;8.884;2023-04-24T18:23:28;95580;;;8.9;69
68891;BME280;55932;48.702;8.884;2023-04-24T18:25:59;95580;;;9;69
68891;BME280;55932;48.702;8.884;2023-04-24T18:28:29;95580;;;9;68.5
68891;BME280;55932;48.702;8.884;2023-04-24T18:31:00;95590;;;8.9;68.5
68891;BME280;55932;48.702;8.884;2023-04-24T18:35:56;95590;;;8.7;69
68891;BME280;55932;48.702;8.884;2023-04-24T18:46:01;95590;;;8.3;69.5
68891;BME280;55932;48.702;8.884;2023-04-24T18:48:29;95600;;;8.2;69.5
68891;BME280;55932;48.702;8.884;2023-04-24T18:51:01;95600;;;8.2;69.5
68891;BME280;55932;48.702;8.884;2023-04-24T18:53:30;95600;;;8.1;69.5
68891;BME280;55932;48.702;8.884;2023-04-24T18:58:38;95610;;;7.9;70
68891;BME280;55932;48.702;8.884;2023-04-24T19:01:09;95610;;;7.8;70
68891;BME280;55932;48.702;8.884;2023-04-24T19:03:40;95610;;;7.8;70
68891;BME280;55932;48.702;8.884;2023-04-24T19:06:11;95620;;;7.8;70
68891;BME280;55932;48.702;8.884;2023-04-24T19:11:05;95610;;;7.4;70
68891;BME280;55932;48.702;8.884;2023-04-24T19:13:36;95620;;;7.4;70
68891;BME280;55932;48.702;8.884;2023-04-24T19:16:07;95620;;;7.4;70.5
68891;BME280;55932;48.702;8.884;2023-04-24T19:18:37;95620;;;7.4;70
68891;BME280;55932;48.702;8.884;2023-04-24T19:21:09;95610;;;7.4;70
68891;BME280;55932;48.702;8.884;2023-04-24T19:23:39;95620;;;7.3;70
68891;BME280;55932;48.702;8.884;2023-04-24T19:26:10;95610;;;7.2;70
68891;BME280;55932;48.702;8.884;2023-04-24T19:28:41;95610;;;7.1;70
68891;BME280;55932;48.702;8.884;2023-04-24T19:41:21;95610;;;7;70
68891;BME280;55932;48.702;8.884;2023-04-24T19:46:22;95620;;;7.1;70
68891;BME280;55932;48.702;8.884;2023-04-24T19:48:53;95620;;;7.1;69.5
68891;BME280;55932;48.702;8.884;2023-04-24T19:53:48;95620;;;7.1;69.5
68891;BME280;55932;48.702;8.884;2023-04-24T19:56:19;95620;;;7.2;69.5
68891;BME280;55932;48.702;8.884;2023-04-24T20:06:22;95630;;;7.2;69.5
68891;BME280;55932;48.702;8.884;2023-04-24T20:08:53;95630;;;7.2;69.5
68891;BME280;55932;48.702;8.884;2023-04-24T20:11:24;95630;;;7.2;69.5
68891;BME280;55932;48.702;8.884;2023-04-24T20:13:54;95620;;;7.2;69.5
68891;BME280;55932;48.702;8.884;2023-04-24T20:16:25;95620;;;7.3;69.5
68891;BME280;55932;48.702;8.884;2023-04-24T20:18:56;95610;;;7.4;69.5
68891;BME280;55932;48.702;8.884;2023-04-24T20:21:27;95610;;;7.5;69.5
68891;BME280;55932;48.702;8.884;2023-04-24T20:24:04;95610;;;7.6;69.5
68891;BME280;55932;48.702;8.884;2023-04-24T20:26:35;95620;;;7.7;69
68891;BME280;55932;48.702;8.884;2023-04-24T20:29:06;95620;;;7.7;69
68891;BME280;55932;48.702;8.884;2023-04-24T20:31:44;95620;;;7.7;69
68891;BME280;55932;48.702;8.884;2023-04-24T20:36:52;95620;;;7.7;69.5
68891;BME280;55932;48.702;8.884;2023-04-24T20:39:15;95620;;;7.6;69.5
68891;BME280;55932;48.702;8.884;2023-04-24T20:44:09;95610;;;7.5;69.5
68891;BME280;55932;48.702;8.884;2023-04-24T20:46:40;95610;;;7.5;69.5